createdAt,value
2018-06-29T00:00:57.722Z,99.90
2018-06-29T00:03:26.169Z,99.90
2018-06-29T00:05:54.636Z,99.90
2018-06-29T00:08:23.080Z,99.90
2018-06-29T00:10:51.500Z,99.90
2018-06-29T00:15:48.131Z,99.90
2018-06-29T00:18:16.603Z,99.90
2018-06-29T00:20:45.053Z,99.90
2018-06-29T00:23:13.541Z,99.90
2018-06-29T00:25:41.956Z,99.90
2018-06-29T00:28:10.413Z,99.90
2018-06-29T00:30:38.825Z,99.90
2018-06-29T00:33:07.254Z,99.90
2018-06-29T00:35:35.684Z,99.90
2018-06-29T00:38:04.280Z,99.90
2018-06-29T00:40:32.719Z,99.90
2018-06-29T00:43:01.289Z,99.90
2018-06-29T00:45:29.707Z,99.90
2018-06-29T00:47:58.142Z,99.90
2018-06-29T00:50:26.707Z,99.90
2018-06-29T00:52:55.186Z,99.90
2018-06-29T00:55:23.759Z,99.90
2018-06-29T00:57:52.147Z,99.90
2018-06-29T01:00:20.560Z,99.90
2018-06-29T01:02:49.080Z,99.90
2018-06-29T01:05:17.844Z,99.90
2018-06-29T01:07:46.245Z,99.90
2018-06-29T01:10:14.768Z,99.90
2018-06-29T01:12:43.468Z,99.90
2018-06-29T01:15:12.000Z,99.90
2018-06-29T01:17:40.510Z,99.90
2018-06-29T01:20:08.946Z,99.90
2018-06-29T01:22:37.462Z,99.90
2018-06-29T01:25:05.924Z,99.90
2018-06-29T01:27:34.415Z,99.90
2018-06-29T01:30:02.845Z,99.90
2018-06-29T01:32:31.461Z,99.90
2018-06-29T01:34:59.960Z,99.90
2018-06-29T01:37:28.513Z,99.90
2018-06-29T01:39:56.939Z,99.90
2018-06-29T01:42:25.380Z,99.90
2018-06-29T01:44:53.822Z,99.90
2018-06-29T01:47:22.284Z,99.90
2018-06-29T01:49:50.723Z,99.90
2018-06-29T01:52:19.180Z,99.90
2018-06-29T01:54:47.551Z,99.90
2018-06-29T01:57:16.016Z,99.90
2018-06-29T01:59:44.960Z,99.90
2018-06-29T02:02:13.420Z,99.90
2018-06-29T02:04:41.907Z,99.90
2018-06-29T02:07:10.384Z,99.90
2018-06-29T02:09:38.864Z,99.90
2018-06-29T02:12:07.371Z,99.90
2018-06-29T02:14:35.773Z,99.90
2018-06-29T02:17:04.233Z,99.90
2018-06-29T02:19:32.669Z,99.90
2018-06-29T02:22:01.148Z,99.90
2018-06-29T02:24:29.619Z,99.90
2018-06-29T02:26:58.682Z,99.90
2018-06-29T02:29:27.148Z,99.90
2018-06-29T02:31:55.568Z,99.90
2018-06-29T02:34:24.348Z,99.90
2018-06-29T02:36:52.977Z,99.90
2018-06-29T02:41:49.568Z,99.90
2018-06-29T02:44:18.025Z,99.90
2018-06-29T02:46:46.545Z,99.90
2018-06-29T02:49:14.958Z,99.90
2018-06-29T02:51:43.825Z,99.90
2018-06-29T02:54:12.360Z,99.90
2018-06-29T02:56:41.626Z,99.90
2018-06-29T02:59:14.740Z,99.90
2018-06-29T03:01:43.845Z,99.90
2018-06-29T03:04:12.322Z,99.90
2018-06-29T03:06:40.810Z,99.90
2018-06-29T03:09:09.923Z,99.90
2018-06-29T03:14:07.175Z,99.90
2018-06-29T03:16:35.752Z,99.90
2018-06-29T03:19:04.224Z,99.90
2018-06-29T03:21:32.627Z,99.90
2018-06-29T03:24:01.099Z,99.90
2018-06-29T03:26:30.020Z,99.90
2018-06-29T03:28:58.479Z,99.90
2018-06-29T03:31:26.897Z,99.90
2018-06-29T03:33:55.365Z,99.90
2018-06-29T03:36:23.788Z,99.90
2018-06-29T03:38:52.500Z,99.90
2018-06-29T03:41:20.939Z,99.90
2018-06-29T03:43:49.386Z,99.90
2018-06-29T03:46:17.888Z,99.90
2018-06-29T03:48:46.369Z,99.90
2018-06-29T03:53:43.171Z,99.90
2018-06-29T03:56:11.620Z,99.90
2018-06-29T03:58:40.048Z,99.90
2018-06-29T04:01:08.460Z,99.90
2018-06-29T04:03:36.939Z,99.90
2018-06-29T04:06:05.439Z,99.90
2018-06-29T04:08:33.883Z,99.90
2018-06-29T04:11:02.296Z,99.90
2018-06-29T04:13:30.716Z,99.90
2018-06-29T04:15:59.154Z,99.90
2018-06-29T04:18:27.615Z,99.90
2018-06-29T04:20:56.443Z,99.90
2018-06-29T04:23:24.924Z,99.90
2018-06-29T04:25:53.380Z,99.90
2018-06-29T04:28:21.860Z,99.90
2018-06-29T04:30:50.285Z,99.90
2018-06-29T04:33:18.742Z,99.90
2018-06-29T04:35:47.172Z,99.90
2018-06-29T04:38:15.629Z,99.90
2018-06-29T04:40:44.061Z,99.90
2018-06-29T04:43:12.520Z,99.90
2018-06-29T04:45:40.987Z,99.90
2018-06-29T04:48:09.653Z,99.90
2018-06-29T04:50:38.092Z,99.90
2018-06-29T04:53:06.532Z,99.90
2018-06-29T04:55:34.963Z,99.90
2018-06-29T04:58:03.453Z,99.90
2018-06-29T05:00:31.960Z,99.90
2018-06-29T05:03:00.434Z,99.90
2018-06-29T05:05:28.859Z,99.90
2018-06-29T05:07:57.311Z,99.90
2018-06-29T05:10:25.751Z,99.90
2018-06-29T05:12:54.199Z,99.90
2018-06-29T05:15:23.798Z,99.90
2018-06-29T05:17:53.417Z,99.90
2018-06-29T05:20:22.325Z,99.90
2018-06-29T05:22:50.804Z,99.90
2018-06-29T05:25:19.231Z,99.90
2018-06-29T05:27:47.779Z,99.90
2018-06-29T05:30:16.248Z,99.60
2018-06-29T05:32:44.703Z,96.40
2018-06-29T05:35:13.258Z,93.60
2018-06-29T05:37:41.708Z,91.20
2018-06-29T05:40:10.216Z,88.10
2018-06-29T05:42:39.045Z,83.40
2018-06-29T05:45:07.516Z,78.30
2018-06-29T05:47:36.051Z,75.60
2018-06-29T05:50:04.877Z,73.10
2018-06-29T05:52:33.399Z,72.30
2018-06-29T05:55:01.881Z,71.60
2018-06-29T05:57:30.352Z,70.60
2018-06-29T05:59:58.808Z,72.70
2018-06-29T06:02:27.384Z,75.70
2018-06-29T06:04:55.929Z,74.30
2018-06-29T06:07:24.361Z,72.50
2018-06-29T06:09:52.890Z,70.90
2018-06-29T06:12:21.356Z,68.20
2018-06-29T06:14:49.779Z,67.50
2018-06-29T06:17:18.206Z,67.70
2018-06-29T06:19:57.947Z,66.80
2018-06-29T06:22:26.380Z,65.30
2018-06-29T06:24:54.854Z,65.10
2018-06-29T06:27:23.362Z,66.80
2018-06-29T06:29:51.807Z,72.30
2018-06-29T06:32:20.739Z,73.00
2018-06-29T06:34:49.240Z,73.50
2018-06-29T06:37:18.121Z,70.40
2018-06-29T06:39:46.511Z,69.20
2018-06-29T06:42:15.044Z,69.40
2018-06-29T06:44:43.477Z,69.50
2018-06-29T06:47:12.060Z,68.50
2018-06-29T06:49:40.510Z,66.40
2018-06-29T06:52:09.025Z,66.50
2018-06-29T06:54:37.444Z,64.30
2018-06-29T06:57:06.101Z,63.60
2018-06-29T06:59:35.961Z,63.40
2018-06-29T07:02:04.449Z,63.50
2018-06-29T07:04:32.949Z,63.70
2018-06-29T07:07:01.405Z,65.20
2018-06-29T07:09:29.875Z,64.60
2018-06-29T07:11:58.340Z,64.00
2018-06-29T07:14:26.779Z,64.40
2018-06-29T07:19:23.444Z,60.90
2018-06-29T07:21:52.033Z,58.20
2018-06-29T07:24:20.633Z,56.80
2018-06-29T07:26:49.140Z,55.40
2018-06-29T07:29:17.758Z,56.30
2018-06-29T07:31:46.704Z,56.90
2018-06-29T07:34:15.180Z,57.30
2018-06-29T07:36:43.726Z,59.10
2018-06-29T07:39:12.228Z,57.80
2018-06-29T07:41:40.729Z,57.20
2018-06-29T07:44:09.191Z,55.80
2018-06-29T07:46:38.154Z,56.20
2018-06-29T07:49:06.661Z,55.00
2018-06-29T07:51:35.159Z,53.10
2018-06-29T07:54:03.719Z,52.80
2018-06-29T07:56:32.283Z,51.30
2018-06-29T07:59:00.939Z,53.30
2018-06-29T08:01:30.850Z,52.60
2018-06-29T08:04:00.531Z,52.50
2018-06-29T08:06:29.209Z,51.20
2018-06-29T08:08:58.016Z,50.20
2018-06-29T08:11:26.651Z,49.70
2018-06-29T08:13:55.292Z,50.20
2018-06-29T08:16:24.487Z,48.40
2018-06-29T08:18:53.204Z,49.70
2018-06-29T08:21:22.634Z,47.70
2018-06-29T08:23:51.678Z,45.90
2018-06-29T08:26:24.081Z,47.80
2018-06-29T08:28:52.977Z,47.60
2018-06-29T08:31:21.977Z,46.90
2018-06-29T08:33:51.338Z,46.20
2018-06-29T08:36:20.483Z,45.60
2018-06-29T08:41:17.325Z,43.80
2018-06-29T08:43:46.139Z,42.70
2018-06-29T08:46:15.101Z,43.30
2018-06-29T08:48:45.024Z,43.00
2018-06-29T08:51:17.015Z,45.10
2018-06-29T08:53:46.160Z,44.20
2018-06-29T08:56:17.582Z,42.90
2018-06-29T08:58:46.334Z,43.30
2018-06-29T09:01:15.154Z,43.60
2018-06-29T09:03:43.677Z,40.90
2018-06-29T09:06:12.513Z,39.60
2018-06-29T09:08:41.338Z,40.50
2018-06-29T09:11:09.809Z,39.70
2018-06-29T09:16:07.665Z,39.00
2018-06-29T09:18:36.102Z,38.00
2018-06-29T09:21:05.040Z,38.50
2018-06-29T09:23:34.405Z,37.70
2018-06-29T09:26:03.390Z,35.50
2018-06-29T09:28:32.667Z,35.60
2018-06-29T09:31:01.256Z,36.00
2018-06-29T09:33:31.599Z,36.30
2018-06-29T09:36:00.608Z,34.70
2018-06-29T09:38:29.924Z,35.10
2018-06-29T09:40:58.999Z,33.40
2018-06-29T09:43:28.153Z,34.80
2018-06-29T09:45:57.632Z,32.90
2018-06-29T09:48:26.842Z,33.90
2018-06-29T09:50:55.340Z,34.80
2018-06-29T09:53:24.023Z,33.30
2018-06-29T09:55:53.181Z,34.10
2018-06-29T09:58:22.375Z,34.20
2018-06-29T10:00:55.414Z,34.00
2018-06-29T10:03:20.829Z,35.20
2018-06-29T10:05:50.109Z,33.90
2018-06-29T10:08:21.047Z,33.00
2018-06-29T10:10:52.979Z,35.10
2018-06-29T10:13:21.485Z,34.20
2018-06-29T10:15:50.302Z,34.70
2018-06-29T10:18:18.868Z,35.00
2018-06-29T10:20:47.396Z,35.10
2018-06-29T10:23:15.952Z,35.30
2018-06-29T10:25:44.666Z,35.70
2018-06-29T10:28:13.867Z,34.30
2018-06-29T10:33:10.590Z,36.30
2018-06-29T10:35:39.376Z,35.90
2018-06-29T10:38:08.104Z,36.30
2018-06-29T10:40:36.572Z,35.50
2018-06-29T10:43:05.154Z,35.80
2018-06-29T10:45:33.749Z,37.90
2018-06-29T10:48:02.398Z,38.30
2018-06-29T10:50:31.092Z,37.60
2018-06-29T10:52:59.644Z,38.00
2018-06-29T10:55:28.193Z,38.40
2018-06-29T10:57:57.041Z,38.50
2018-06-29T11:00:25.601Z,39.90
2018-06-29T11:02:54.124Z,39.40
2018-06-29T11:05:22.740Z,38.30
2018-06-29T11:07:51.262Z,37.30
2018-06-29T11:10:19.893Z,38.40
2018-06-29T11:12:48.360Z,38.20
2018-06-29T11:15:16.801Z,38.00
2018-06-29T11:17:45.320Z,37.60
2018-06-29T11:20:13.797Z,38.20
2018-06-29T11:22:42.298Z,38.30
2018-06-29T11:25:11.091Z,39.70
2018-06-29T11:27:39.850Z,39.50
2018-06-29T11:30:08.395Z,39.80
2018-06-29T11:32:36.887Z,40.90
2018-06-29T11:35:05.410Z,40.70
2018-06-29T11:37:34.050Z,40.50
2018-06-29T11:40:02.811Z,40.00
2018-06-29T11:42:31.308Z,38.90
2018-06-29T11:45:31.949Z,40.00
2018-06-29T11:48:01.405Z,40.60
2018-06-29T11:50:29.912Z,40.30
2018-06-29T11:52:58.584Z,40.90
2018-06-29T11:55:27.128Z,41.00
2018-06-29T11:57:55.772Z,40.40
2018-06-29T12:00:24.232Z,40.10
2018-06-29T12:02:52.979Z,40.40
2018-06-29T12:05:21.624Z,39.10
2018-06-29T12:07:50.875Z,39.20
2018-06-29T12:10:19.317Z,39.30
2018-06-29T12:12:47.861Z,38.50
2018-06-29T12:15:16.421Z,40.10
2018-06-29T12:17:44.894Z,40.30
2018-06-29T12:20:13.366Z,41.30
2018-06-29T12:22:41.796Z,39.40
2018-06-29T12:25:10.374Z,40.50
2018-06-29T12:27:38.859Z,40.10
2018-06-29T12:30:07.347Z,40.50
2018-06-29T12:32:35.802Z,40.80
2018-06-29T12:35:04.964Z,41.00
2018-06-29T12:37:33.429Z,41.80
2018-06-29T12:40:02.254Z,42.10
2018-06-29T12:42:30.874Z,42.00
2018-06-29T12:44:59.577Z,42.70
2018-06-29T12:47:28.052Z,42.10
2018-06-29T12:49:56.484Z,41.00
2018-06-29T12:52:24.944Z,41.20
2018-06-29T12:54:53.453Z,42.30
2018-06-29T12:57:21.886Z,40.60
2018-06-29T12:59:50.360Z,39.90
2018-06-29T13:02:19.088Z,40.00
2018-06-29T13:04:47.533Z,39.30
2018-06-29T13:07:15.952Z,39.90
2018-06-29T13:09:44.389Z,39.00
2018-06-29T13:12:12.885Z,38.50
2018-06-29T13:14:41.316Z,38.30
2018-06-29T13:17:09.749Z,39.10
2018-06-29T13:19:38.208Z,38.10
2018-06-29T13:22:07.756Z,38.90
2018-06-29T13:24:36.560Z,39.80
2018-06-29T13:27:05.225Z,39.70
2018-06-29T13:29:33.657Z,39.30
2018-06-29T13:32:02.088Z,39.00
2018-06-29T13:34:31.003Z,38.70
2018-06-29T13:36:59.503Z,39.40
2018-06-29T13:39:28.015Z,39.80
2018-06-29T13:41:56.500Z,40.20
2018-06-29T13:44:25.052Z,39.00
2018-06-29T13:46:53.446Z,40.00
2018-06-29T13:49:22.248Z,40.30
2018-06-29T13:51:50.698Z,40.00
2018-06-29T13:54:19.142Z,39.20
2018-06-29T13:56:47.594Z,39.30
2018-06-29T13:59:16.036Z,39.70
2018-06-29T14:04:13.864Z,39.70
2018-06-29T14:06:42.285Z,39.70
2018-06-29T14:09:10.780Z,39.30
2018-06-29T14:11:39.709Z,40.10
2018-06-29T14:14:08.845Z,40.20
2018-06-29T14:16:37.341Z,39.90
2018-06-29T14:19:06.152Z,40.10
2018-06-29T14:21:35.220Z,40.00
2018-06-29T14:24:03.679Z,39.30
2018-06-29T14:26:32.141Z,39.60
2018-06-29T14:29:00.919Z,39.00
2018-06-29T14:31:29.885Z,39.70
2018-06-29T14:33:58.581Z,39.60
2018-06-29T14:36:26.978Z,39.40
2018-06-29T14:38:55.424Z,40.10
2018-06-29T14:41:23.919Z,40.50
2018-06-29T14:43:52.429Z,39.80
2018-06-29T14:46:20.883Z,39.70
2018-06-29T14:48:49.281Z,39.30
2018-06-29T14:51:17.796Z,39.10
2018-06-29T14:53:46.300Z,39.60
2018-06-29T14:56:15.396Z,39.70
2018-06-29T14:58:43.979Z,40.20
2018-06-29T15:01:12.474Z,38.60
2018-06-29T15:03:40.999Z,38.30
2018-06-29T15:06:09.462Z,39.10
2018-06-29T15:08:38.008Z,39.00
2018-06-29T15:11:06.608Z,40.20
2018-06-29T15:16:03.312Z,40.10
2018-06-29T15:18:31.738Z,39.20
2018-06-29T15:21:00.571Z,40.00
2018-06-29T15:23:29.264Z,40.20
2018-06-29T15:25:57.942Z,40.00
2018-06-29T15:28:26.492Z,39.70
2018-06-29T15:30:55.062Z,39.40
2018-06-29T15:33:23.520Z,39.10
2018-06-29T15:35:52.026Z,39.20
2018-06-29T15:38:20.523Z,39.50
2018-06-29T15:40:49.036Z,40.00
2018-06-29T15:43:17.520Z,40.00
2018-06-29T15:45:46.099Z,41.20
2018-06-29T15:48:14.573Z,41.90
2018-06-29T15:50:43.067Z,41.70
2018-06-29T15:53:11.578Z,41.70
2018-06-29T15:55:40.323Z,41.90
2018-06-29T15:58:08.807Z,42.00
2018-06-29T16:00:37.285Z,40.90
2018-06-29T16:03:06.537Z,41.20
2018-06-29T16:05:34.973Z,39.70
2018-06-29T16:08:03.588Z,40.40
2018-06-29T16:10:32.037Z,40.80
2018-06-29T16:13:00.521Z,41.10
2018-06-29T16:15:29.007Z,41.30
2018-06-29T16:17:57.552Z,41.60
2018-06-29T16:20:26.012Z,41.20
2018-06-29T16:22:54.587Z,42.20
2018-06-29T16:25:23.064Z,43.60
2018-06-29T16:27:51.528Z,44.00
2018-06-29T16:30:19.976Z,43.80
2018-06-29T16:32:48.388Z,43.30
2018-06-29T16:35:16.890Z,44.00
2018-06-29T16:37:45.361Z,44.70
2018-06-29T16:42:41.901Z,45.50
2018-06-29T16:45:10.489Z,46.00
2018-06-29T16:50:07.416Z,46.90
2018-06-29T16:52:35.836Z,46.90
2018-06-29T16:55:04.442Z,46.00
2018-06-29T16:57:32.900Z,46.00
2018-06-29T17:00:01.397Z,46.60
2018-06-29T17:02:29.945Z,46.50
2018-06-29T17:04:58.825Z,46.20
2018-06-29T17:07:27.408Z,46.90
2018-06-29T17:09:57.148Z,47.50
2018-06-29T17:12:25.675Z,47.90
2018-06-29T17:14:54.175Z,48.60
2018-06-29T17:17:22.753Z,49.10
2018-06-29T17:19:51.180Z,50.60
2018-06-29T17:22:19.652Z,49.30
2018-06-29T17:24:48.133Z,48.90
2018-06-29T17:27:16.690Z,49.40
2018-06-29T17:29:45.128Z,50.20
2018-06-29T17:32:13.910Z,50.30
2018-06-29T17:34:42.410Z,50.20
2018-06-29T17:37:11.005Z,49.30
2018-06-29T17:39:39.555Z,49.30
2018-06-29T17:44:36.454Z,48.30
2018-06-29T17:47:05.125Z,48.60
2018-06-29T17:49:33.632Z,49.30
2018-06-29T17:52:02.140Z,49.90
2018-06-29T17:54:30.707Z,50.50
2018-06-29T17:56:59.426Z,50.80
2018-06-29T17:59:27.875Z,51.70
2018-06-29T18:01:56.415Z,51.60
2018-06-29T18:04:24.958Z,51.50
2018-06-29T18:06:53.672Z,52.00
2018-06-29T18:09:22.172Z,52.00
2018-06-29T18:11:52.385Z,52.60
2018-06-29T18:14:20.885Z,52.80
2018-06-29T18:16:49.381Z,52.60
2018-06-29T18:19:17.907Z,52.90
2018-06-29T18:21:46.414Z,52.70
2018-06-29T18:24:14.898Z,52.80
2018-06-29T18:26:43.448Z,53.10
2018-06-29T18:29:11.869Z,53.20
2018-06-29T18:34:08.513Z,53.40
2018-06-29T18:36:37.135Z,53.00
2018-06-29T18:39:08.757Z,53.00
2018-06-29T18:41:37.384Z,53.40
2018-06-29T18:44:05.908Z,53.40
2018-06-29T18:46:34.648Z,53.60
2018-06-29T18:49:03.441Z,54.20
2018-06-29T18:51:31.992Z,54.70
2018-06-29T18:54:00.661Z,55.10
2018-06-29T18:56:29.273Z,55.10
2018-06-29T18:58:58.014Z,55.40
2018-06-29T19:01:26.585Z,55.90
2018-06-29T19:03:55.182Z,56.10
2018-06-29T19:06:24.292Z,56.30
2018-06-29T19:08:54.351Z,56.70
2018-06-29T19:11:25.541Z,57.30
2018-06-29T19:13:54.064Z,57.30
2018-06-29T19:16:24.604Z,57.70
2018-06-29T19:18:54.404Z,57.70
2018-06-29T19:21:23.761Z,57.60
2018-06-29T19:23:52.943Z,57.80
2018-06-29T19:26:22.706Z,58.30
2018-06-29T19:28:51.546Z,58.80
2018-06-29T19:31:20.692Z,59.20
2018-06-29T19:33:49.379Z,59.40
2018-06-29T19:36:18.561Z,59.80
2018-06-29T19:38:47.081Z,60.30
2018-06-29T19:41:15.670Z,60.70
2018-06-29T19:43:44.208Z,61.20
2018-06-29T19:46:13.628Z,61.20
2018-06-29T19:48:43.541Z,61.60
2018-06-29T19:51:12.845Z,62.10
2018-06-29T19:53:43.724Z,62.70
2018-06-29T19:56:12.320Z,63.40
2018-06-29T19:58:41.550Z,64.30
2018-06-29T20:01:10.752Z,65.10
2018-06-29T20:03:40.180Z,66.10
2018-06-29T20:06:09.345Z,67.20
2018-06-29T20:08:37.865Z,68.40
2018-06-29T20:11:06.411Z,69.10
2018-06-29T20:13:35.325Z,69.50
2018-06-29T20:16:04.009Z,70.10
2018-06-29T20:18:33.008Z,70.80
2018-06-29T20:21:02.139Z,71.60
2018-06-29T20:23:31.225Z,72.20
2018-06-29T20:26:00.548Z,72.80
2018-06-29T20:28:29.078Z,73.90
2018-06-29T20:30:57.542Z,74.80
2018-06-29T20:33:26.158Z,75.80
2018-06-29T20:35:54.591Z,77.20
2018-06-29T20:38:23.184Z,78.00
2018-06-29T20:40:51.905Z,78.90
2018-06-29T20:43:20.475Z,80.60
2018-06-29T20:45:48.991Z,80.70
2018-06-29T20:48:17.625Z,81.40
2018-06-29T20:53:14.557Z,83.60
2018-06-29T20:55:43.262Z,85.40
2018-06-29T20:58:11.755Z,87.30
2018-06-29T21:00:40.263Z,90.10
2018-06-29T21:03:09.081Z,88.80
2018-06-29T21:05:37.598Z,90.20
2018-06-29T21:08:06.425Z,90.20
2018-06-29T21:10:35.482Z,91.00
2018-06-29T21:13:04.740Z,92.90
2018-06-29T21:15:33.465Z,92.10
2018-06-29T21:18:02.025Z,92.30
2018-06-29T21:20:30.706Z,92.80
2018-06-29T21:22:59.145Z,93.60
2018-06-29T21:25:27.762Z,93.90
2018-06-29T21:27:56.411Z,94.90
2018-06-29T21:30:24.828Z,95.50
2018-06-29T21:32:53.405Z,95.70
2018-06-29T21:35:21.874Z,96.30
2018-06-29T21:37:50.337Z,97.40
2018-06-29T21:40:18.780Z,98.80
2018-06-29T21:42:48.311Z,98.80
2018-06-29T21:47:45.377Z,99.90
2018-06-29T21:50:13.912Z,99.90
2018-06-29T21:52:42.823Z,99.90
2018-06-29T21:55:11.242Z,99.90
2018-06-29T21:57:39.677Z,99.90
2018-06-29T22:00:10.890Z,99.90
2018-06-29T22:02:39.740Z,99.90
2018-06-29T22:05:08.738Z,99.90
2018-06-29T22:07:37.946Z,99.90
2018-06-29T22:10:07.764Z,99.90
2018-06-29T22:12:36.236Z,99.90
2018-06-29T22:15:09.074Z,99.90
2018-06-29T22:17:37.772Z,99.90
2018-06-29T22:20:06.593Z,99.90
2018-06-29T22:22:34.994Z,99.90
2018-06-29T22:25:03.649Z,99.90
2018-06-29T22:27:32.078Z,99.90
2018-06-29T22:30:00.572Z,99.90
2018-06-29T22:32:29.005Z,99.90
2018-06-29T22:34:57.433Z,99.90
2018-06-29T22:37:27.164Z,99.90
2018-06-29T22:39:55.577Z,99.90
2018-06-29T22:42:24.032Z,99.90
2018-06-29T22:44:52.465Z,99.90
2018-06-29T22:47:21.010Z,99.90
2018-06-29T22:49:49.487Z,99.90
2018-06-29T22:52:18.245Z,99.90
2018-06-29T22:54:46.742Z,99.90
2018-06-29T22:57:15.239Z,99.90
2018-06-29T22:59:43.739Z,99.90
2018-06-29T23:02:12.440Z,99.90
2018-06-29T23:04:40.880Z,99.90
2018-06-29T23:07:09.380Z,99.90
2018-06-29T23:09:37.832Z,99.90
2018-06-29T23:12:06.312Z,99.90
2018-06-29T23:14:34.755Z,99.90
2018-06-29T23:17:03.324Z,99.90
2018-06-29T23:19:31.833Z,99.90
2018-06-29T23:22:00.324Z,99.90
2018-06-29T23:24:29.364Z,99.90
2018-06-29T23:26:57.842Z,99.90
2018-06-29T23:29:26.284Z,99.90
2018-06-29T23:31:54.793Z,99.90
2018-06-29T23:34:23.257Z,99.90
2018-06-29T23:36:51.715Z,99.90
2018-06-29T23:39:20.111Z,99.90
2018-06-29T23:44:16.772Z,99.90
2018-06-29T23:46:45.395Z,99.90
2018-06-29T23:49:13.892Z,99.90
2018-06-29T23:51:42.726Z,99.90
2018-06-29T23:54:11.190Z,99.90
2018-06-29T23:56:39.647Z,99.90
2018-06-29T23:59:08.455Z,99.90
